METAR AND TAF INFORMATION
METAR FOR TKPK
ADDS - METARS form results

(0529 UTC 27 November 2022)
Data provider http://aviationweather.gov/metar/data/
 
Forecast for: TKPK (GOLDEN ROCKS/NEV, KN)
Text: TAF TKPK 262300Z 2700/2724 08012KT 9999 SCT021
Forecast period: 0000 UTC 27 November 2022 to 0000 UTC 28 November 2022
Forecast type: FROM: standard forecast or significant change
Winds: from the E (80 degrees) at 14 MPH (12 knots; 6.2 m/s)
Visibility: 6 or more miles (10+ km)
Ceiling: at least 12,000 feet AGL
Clouds: scattered clouds at 2100 feet AGL
Weather: no significant weather forecast for this period
Text: PROB30
Forecast period: 0600 to 1600 UTC 27 November 2022
Forecast type: TEMPORARY: The following changes expected for less than half the time period
Visibility: missing
Ceiling: unknown
Clouds: missing
Weather: SHRA  (rain showers)

 AIRPORT MAP

 RUNWAY INFORMATION
Runway 07 Runway length 7602 ft Runway width 148 ft
Runway elevation 168 ft Runway displaced threshold 200 ft Runway heading 57
Runway 25 Runway length 7602 ft Runway width 148 ft
Runway elevation 161 ft Runway displaced threshold 0 ft Runway heading 237

 AIRPORT FREQUENCIES
Type APP Name APP Frequency 119.6 MHZ
Type GND Name GND Frequency 121.9 MHZ
Type TWR Name TWR Frequency 118.3 MHZ

 AIRPORT NEAR NAVIGATION AIDS
Type NDB-DME Name Bradshaw Frequency 325 KHZ

-